createdAt,value
2023-03-22T00:02:14.028Z,10.37
2023-03-22T00:04:42.964Z,10.37
2023-03-22T00:07:09.780Z,10.37
2023-03-22T00:09:36.672Z,10.38
2023-03-22T00:12:03.627Z,10.37
2023-03-22T00:14:30.442Z,10.34
2023-03-22T00:16:57.762Z,10.31
2023-03-22T00:19:24.497Z,10.28
2023-03-22T00:21:51.538Z,10.25
2023-03-22T00:24:18.396Z,10.21
2023-03-22T00:26:47.486Z,10.19
2023-03-22T00:29:14.202Z,10.16
2023-03-22T00:31:41.420Z,10.12
2023-03-22T00:34:08.229Z,10.09
2023-03-22T00:36:34.820Z,10.08
2023-03-22T00:39:01.468Z,10.05
2023-03-22T00:41:28.075Z,10.02
2023-03-22T00:43:55.790Z,10.01
2023-03-22T00:46:22.662Z,9.99
2023-03-22T00:48:49.466Z,9.97
2023-03-22T00:51:16.736Z,9.96
2023-03-22T00:53:43.934Z,9.95
2023-03-22T00:56:15.882Z,9.93
2023-03-22T00:58:43.156Z,9.94
2023-03-22T01:01:13.631Z,9.95
2023-03-22T01:03:41.963Z,9.95
2023-03-22T01:06:09.567Z,9.97
2023-03-22T01:08:38.677Z,9.98
2023-03-22T01:11:07.499Z,9.98
2023-03-22T01:13:37.561Z,9.98
2023-03-22T01:16:06.060Z,9.98
2023-03-22T01:18:32.787Z,9.99
2023-03-22T01:21:00.087Z,9.99
2023-03-22T01:23:26.808Z,9.99
2023-03-22T01:25:53.493Z,9.99
2023-03-22T01:28:21.503Z,10.00
2023-03-22T01:30:48.228Z,10.03
2023-03-22T01:33:14.794Z,10.05
2023-03-22T01:35:41.665Z,10.06
2023-03-22T01:38:08.494Z,10.08
2023-03-22T01:40:35.399Z,10.10
2023-03-22T01:43:02.252Z,10.10
2023-03-22T01:45:39.538Z,10.10
2023-03-22T01:48:46.184Z,10.10
2023-03-22T01:51:21.961Z,10.10
2023-03-22T01:53:59.668Z,10.10
2023-03-22T01:56:30.193Z,10.09
2023-03-22T01:58:57.496Z,10.07
2023-03-22T02:01:25.273Z,10.07
2023-03-22T02:03:57.670Z,10.07
2023-03-22T02:06:25.824Z,10.06
2023-03-22T02:08:58.239Z,10.07
2023-03-22T02:11:30.846Z,10.08
2023-03-22T02:14:06.752Z,10.09
2023-03-22T02:16:42.454Z,10.09
2023-03-22T02:19:19.809Z,10.09
2023-03-22T02:22:09.811Z,10.11
2023-03-22T02:24:47.391Z,10.11
2023-03-22T02:27:43.519Z,10.12
2023-03-22T02:30:10.022Z,10.11
2023-03-22T02:33:00.287Z,10.09
2023-03-22T02:35:33.599Z,10.08
2023-03-22T02:38:21.881Z,10.07
2023-03-22T02:41:02.554Z,10.07
2023-03-22T02:43:46.283Z,10.05
2023-03-22T02:46:31.822Z,10.05
2023-03-22T02:49:20.437Z,10.04
2023-03-22T02:52:01.581Z,10.02
2023-03-22T02:54:44.813Z,10.00
2023-03-22T02:57:40.402Z,9.99
2023-03-22T03:00:13.598Z,9.98
2023-03-22T03:02:55.750Z,9.96
2023-03-22T03:05:23.706Z,9.96
2023-03-22T03:07:57.091Z,9.96
2023-03-22T03:10:24.580Z,9.95
2023-03-22T03:12:52.573Z,9.96
2023-03-22T03:15:23.741Z,9.97
2023-03-22T03:18:39.177Z,9.97
2023-03-22T03:21:24.898Z,9.98
2023-03-22T03:23:51.479Z,9.98
2023-03-22T03:26:23.968Z,9.98
2023-03-22T03:29:05.684Z,9.99
2023-03-22T03:31:42.242Z,9.99
2023-03-22T03:34:17.711Z,10.01
2023-03-22T03:37:00.251Z,10.02
2023-03-22T03:39:30.508Z,10.06
2023-03-22T03:41:58.676Z,10.08
2023-03-22T03:44:25.691Z,10.10
2023-03-22T03:46:54.002Z,10.11
2023-03-22T03:49:23.559Z,10.11
2023-03-22T03:51:55.724Z,10.13
2023-03-22T03:54:23.591Z,10.15
2023-03-22T03:56:51.013Z,10.15
2023-03-22T03:59:18.882Z,10.13
2023-03-22T04:01:50.434Z,10.16
2023-03-22T04:04:28.728Z,10.16
2023-03-22T04:06:57.294Z,10.18
2023-03-22T04:09:26.967Z,10.18
2023-03-22T04:11:55.325Z,10.18
2023-03-22T04:14:23.799Z,10.19
2023-03-22T04:16:50.798Z,10.18
2023-03-22T04:19:17.787Z,10.19
2023-03-22T04:21:44.435Z,10.18
2023-03-22T04:24:11.170Z,10.18
2023-03-22T04:26:38.250Z,10.15
2023-03-22T04:29:04.999Z,10.14
2023-03-22T04:31:34.040Z,10.14
2023-03-22T04:34:05.639Z,10.13
2023-03-22T04:36:39.381Z,10.12
2023-03-22T04:39:11.490Z,10.11
2023-03-22T04:41:38.342Z,10.11
2023-03-22T04:44:06.479Z,10.09
2023-03-22T04:46:35.335Z,10.09
2023-03-22T04:49:02.116Z,10.08
2023-03-22T04:51:29.214Z,10.09
2023-03-22T04:53:56.021Z,10.11
2023-03-22T04:56:24.851Z,10.12
2023-03-22T04:58:51.554Z,10.15
2023-03-22T05:01:18.409Z,10.15
2023-03-22T05:03:47.441Z,10.15
2023-03-22T05:06:15.366Z,10.14
2023-03-22T05:08:42.588Z,10.16
2023-03-22T05:11:14.947Z,10.14
2023-03-22T05:13:41.900Z,10.12
2023-03-22T05:16:10.587Z,10.10
2023-03-22T05:18:42.582Z,10.07
2023-03-22T05:21:15.651Z,10.03
2023-03-22T05:23:43.398Z,10.01
2023-03-22T05:26:15.970Z,10.00
2023-03-22T05:28:44.296Z,9.98
2023-03-22T05:31:14.655Z,9.98
2023-03-22T05:33:41.892Z,9.96
2023-03-22T05:36:11.318Z,9.94
2023-03-22T05:38:38.562Z,9.94
2023-03-22T05:41:05.377Z,9.95
2023-03-22T05:43:32.921Z,9.96
2023-03-22T05:45:59.518Z,9.96
2023-03-22T05:48:26.248Z,9.99
2023-03-22T05:50:52.897Z,9.99
2023-03-22T05:53:19.507Z,10.01
2023-03-22T05:55:46.261Z,10.01
2023-03-22T05:58:13.130Z,10.02
2023-03-22T06:00:40.443Z,10.04
2023-03-22T06:03:09.221Z,10.05
2023-03-22T06:05:37.373Z,10.07
2023-03-22T06:10:54.328Z,10.12
2023-03-22T06:13:22.060Z,10.13
2023-03-22T06:15:48.653Z,10.15
2023-03-22T06:18:15.551Z,10.16
2023-03-22T06:20:42.510Z,10.16
2023-03-22T06:23:09.696Z,10.16
2023-03-22T06:25:36.729Z,10.16
2023-03-22T06:28:03.346Z,10.17
2023-03-22T06:30:30.108Z,10.15
2023-03-22T06:33:00.558Z,10.15
2023-03-22T06:35:27.889Z,10.14
2023-03-22T06:37:54.648Z,10.14
2023-03-22T06:40:21.342Z,10.16
2023-03-22T06:42:48.388Z,10.17
2023-03-22T06:45:16.554Z,10.17
2023-03-22T06:47:44.217Z,10.17
2023-03-22T06:50:12.295Z,10.16
2023-03-22T06:52:38.872Z,10.16
2023-03-22T06:55:05.926Z,10.15
2023-03-22T06:57:32.747Z,10.16
2023-03-22T07:00:01.914Z,10.18
2023-03-22T07:02:31.635Z,10.23
2023-03-22T07:05:00.299Z,10.41
2023-03-22T07:07:26.946Z,10.84
2023-03-22T07:09:53.886Z,11.38
2023-03-22T07:12:21.025Z,11.76
2023-03-22T07:14:47.873Z,12.06
2023-03-22T07:17:16.808Z,12.27
2023-03-22T07:19:45.426Z,12.50
2023-03-22T07:22:13.158Z,12.77
2023-03-22T07:24:50.243Z,12.93
2023-03-22T07:27:21.201Z,13.01
2023-03-22T07:29:47.776Z,13.18
2023-03-22T07:32:14.392Z,13.33
2023-03-22T07:34:41.072Z,13.40
2023-03-22T07:37:08.628Z,13.39
2023-03-22T07:39:35.350Z,13.28
2023-03-22T07:42:02.176Z,13.10
2023-03-22T07:44:28.737Z,13.05
2023-03-22T07:46:56.518Z,13.02
2023-03-22T07:49:23.126Z,12.94
2023-03-22T07:51:49.681Z,12.90
2023-03-22T07:54:32.121Z,12.90
2023-03-22T07:56:58.958Z,12.88
2023-03-22T07:59:26.001Z,12.82
2023-03-22T08:01:52.626Z,12.78
2023-03-22T08:04:20.992Z,12.83
2023-03-22T08:06:47.719Z,12.84
2023-03-22T08:09:14.423Z,12.81
2023-03-22T08:11:41.513Z,12.77
2023-03-22T08:14:08.909Z,12.68
2023-03-22T08:16:35.670Z,12.61
2023-03-22T08:19:02.323Z,12.50
2023-03-22T08:21:29.009Z,12.46
2023-03-22T08:23:55.772Z,12.41
2023-03-22T08:26:23.263Z,12.36
2023-03-22T08:28:49.832Z,12.32
2023-03-22T08:31:18.442Z,12.31
2023-03-22T08:33:45.715Z,12.26
2023-03-22T08:36:16.804Z,12.30
2023-03-22T08:38:44.943Z,12.32
2023-03-22T08:41:13.124Z,12.31
2023-03-22T08:43:39.928Z,12.38
2023-03-22T08:46:06.717Z,12.47
2023-03-22T08:48:35.723Z,12.55
2023-03-22T08:51:02.490Z,12.61
2023-03-22T08:53:29.128Z,12.65
2023-03-22T08:55:58.262Z,12.72
2023-03-22T08:58:25.025Z,12.76
2023-03-22T09:00:52.170Z,12.78
2023-03-22T09:03:20.099Z,12.76
2023-03-22T09:05:46.742Z,12.66
2023-03-22T09:08:19.289Z,12.60
2023-03-22T09:10:51.437Z,12.55
2023-03-22T09:13:19.168Z,12.53
2023-03-22T09:15:46.275Z,12.48
2023-03-22T09:18:13.872Z,12.41
2023-03-22T09:20:40.852Z,12.41
2023-03-22T09:23:07.827Z,12.49
2023-03-22T09:25:34.563Z,12.56
2023-03-22T09:28:01.430Z,12.66
2023-03-22T09:30:28.598Z,12.77
2023-03-22T09:32:55.692Z,12.89
2023-03-22T09:35:22.476Z,12.89
2023-03-22T09:37:49.545Z,12.88
2023-03-22T09:40:17.742Z,12.89
2023-03-22T09:42:48.221Z,12.93
2023-03-22T09:45:43.277Z,13.00
2023-03-22T09:48:29.258Z,13.12
2023-03-22T09:50:56.376Z,13.27
2023-03-22T09:53:26.953Z,13.35
2023-03-22T09:56:12.169Z,13.45
2023-03-22T09:58:53.019Z,13.55
2023-03-22T10:01:26.977Z,13.65
2023-03-22T10:04:03.350Z,13.80
2023-03-22T10:06:30.843Z,13.89
2023-03-22T10:09:06.838Z,13.85
2023-03-22T10:12:05.237Z,13.85
2023-03-22T10:14:48.478Z,13.90
2023-03-22T10:17:19.137Z,13.95
2023-03-22T10:19:55.298Z,13.91
2023-03-22T10:22:29.890Z,13.92
2023-03-22T10:24:58.815Z,13.88
2023-03-22T10:27:28.831Z,13.84
2023-03-22T10:30:01.385Z,13.79
2023-03-22T10:33:03.352Z,13.77
2023-03-22T10:35:31.745Z,13.76
2023-03-22T10:38:04.574Z,13.65
2023-03-22T10:40:37.255Z,13.57
2023-03-22T10:43:10.535Z,13.50
2023-03-22T10:45:37.683Z,13.42
2023-03-22T10:48:11.448Z,13.39
2023-03-22T10:50:45.656Z,13.31
2023-03-22T10:53:31.606Z,13.28
2023-03-22T10:55:58.703Z,13.28
2023-03-22T10:58:34.987Z,13.21
2023-03-22T11:01:08.689Z,13.24
2023-03-22T11:03:35.326Z,13.22
2023-03-22T11:06:08.211Z,13.21
2023-03-22T11:08:52.742Z,13.16
2023-03-22T11:11:28.124Z,13.09
2023-03-22T11:14:14.795Z,13.04
2023-03-22T11:16:56.179Z,13.03
2023-03-22T11:19:29.245Z,12.96
2023-03-22T11:21:57.515Z,12.96
2023-03-22T11:24:30.416Z,12.92
2023-03-22T11:27:07.220Z,12.91
2023-03-22T11:29:46.624Z,12.89
2023-03-22T11:32:29.295Z,12.91
2023-03-22T11:35:14.760Z,12.89
2023-03-22T11:37:50.270Z,12.88
2023-03-22T11:40:31.535Z,12.90
2023-03-22T11:43:10.630Z,12.90
2023-03-22T11:45:42.452Z,12.89
2023-03-22T11:48:14.545Z,12.90
2023-03-22T11:50:43.517Z,12.92
2023-03-22T11:53:18.124Z,12.92
2023-03-22T11:55:46.197Z,12.98
2023-03-22T11:58:55.431Z,13.01
2023-03-22T12:01:34.766Z,13.03
2023-03-22T12:04:07.378Z,13.04
2023-03-22T12:06:38.929Z,13.07
2023-03-22T12:09:12.626Z,13.05
2023-03-22T12:11:49.093Z,13.03
2023-03-22T12:14:45.563Z,13.06
2023-03-22T12:17:36.547Z,13.04
2023-03-22T12:20:30.618Z,13.10
2023-03-22T12:22:57.580Z,13.13
2023-03-22T12:25:33.312Z,13.13
2023-03-22T12:28:07.222Z,13.14
2023-03-22T12:30:44.311Z,13.13
2023-03-22T12:33:23.073Z,13.17
2023-03-22T12:35:54.091Z,13.17
2023-03-22T12:38:24.180Z,13.06
2023-03-22T12:40:53.616Z,13.02
2023-03-22T12:43:56.779Z,12.93
2023-03-22T12:46:40.216Z,12.82
2023-03-22T12:49:22.696Z,12.81
2023-03-22T12:51:52.405Z,12.75
2023-03-22T12:54:24.192Z,12.68
2023-03-22T12:56:52.059Z,12.67
2023-03-22T12:59:22.610Z,12.67
2023-03-22T13:02:00.787Z,12.72
2023-03-22T13:04:36.202Z,12.71
2023-03-22T13:07:14.915Z,12.66
2023-03-22T13:09:49.797Z,12.65
2023-03-22T13:12:19.411Z,12.62
2023-03-22T13:14:49.271Z,12.63
2023-03-22T13:17:25.325Z,12.62
2023-03-22T13:20:23.564Z,12.64
2023-03-22T13:22:50.135Z,12.65
2023-03-22T13:25:19.742Z,12.64
2023-03-22T13:27:46.472Z,12.63
2023-03-22T13:30:49.210Z,12.62
2023-03-22T13:33:21.121Z,12.55
2023-03-22T13:35:52.813Z,12.59
2023-03-22T13:38:29.843Z,12.55
2023-03-22T13:40:59.657Z,12.54
2023-03-22T13:43:28.869Z,12.52
2023-03-22T13:46:11.771Z,12.44
2023-03-22T13:48:43.495Z,12.43
2023-03-22T13:51:31.154Z,12.43
2023-03-22T13:54:09.405Z,12.41
2023-03-22T13:56:42.426Z,12.42
2023-03-22T13:59:27.387Z,12.42
2023-03-22T14:02:22.401Z,12.41
2023-03-22T14:04:53.583Z,12.41
2023-03-22T14:07:29.310Z,12.38
2023-03-22T14:10:01.569Z,12.38
2023-03-22T14:12:45.877Z,12.34
2023-03-22T14:15:28.707Z,12.34
2023-03-22T14:18:23.448Z,12.30
2023-03-22T14:20:57.460Z,12.30
